TimeEST,TemperatureF,Dew PointF,Humidity,Sea Level PressureIn,VisibilityMPH,Wind Direction,Wind SpeedMPH,Gust SpeedMPH,PrecipitationIn,Events,Conditions,WindDirDegrees,DateUTC
12:10 AM,30.2,28.4,93,29.75,1.8,NNW,5.8,-,0.00,Snow,Light Snow,340,2013-11-27 05:10:00
12:42 AM,30.2,28.4,93,29.74,2.0,NW,6.9,-,0.00,Snow,Light Snow,320,2013-11-27 05:42:00
12:50 AM,30.2,28.4,93,29.73,1.5,North,6.9,-,0.00,Snow,Light Snow,350,2013-11-27 05:50:00
12:53 AM,30.9,28.9,92,29.78,1.5,NNW,5.8,-,0.00,Snow,Light Snow,330,2013-11-27 05:53:00
1:07 AM,30.2,28.4,93,29.73,2.0,Calm,Calm,-,0.00,Snow,Light Snow,0,2013-11-27 06:07:00
1:16 AM,30.2,28.4,93,29.72,1.8,North,5.8,-,0.00,Snow,Light Snow,350,2013-11-27 06:16:00
1:53 AM,30.9,28.9,92,29.76,2.0,NNW,6.9,-,0.00,Snow,Light Snow,340,2013-11-27 06:53:00
2:10 AM,30.2,28.4,93,29.72,1.5,NW,5.8,-,0.00,Snow,Light Snow,320,2013-11-27 07:10:00
2:24 AM,30.2,28.4,93,29.72,3.0,NNW,10.4,18.4,0.00,Snow,Light Snow,340,2013-11-27 07:24:00
2:53 AM,30.9,28.0,89,29.75,5.0,NNW,10.4,17.3,0.00,Snow,Light Snow,330,2013-11-27 07:53:00
3:53 AM,30.0,27.0,88,29.75,8.0,NNW,10.4,16.1,0.00,Snow,Light Snow,340,2013-11-27 08:53:00
4:06 AM,30.2,26.6,86,29.71,9.0,NNW,10.4,17.3,0.00,,Overcast,340,2013-11-27 09:06:00
4:23 AM,30.2,28.4,93,29.70,10.0,NNW,6.9,-,0.00,,Overcast,340,2013-11-27 09:23:00
4:53 AM,30.9,28.0,89,29.74,9.0,NNW,5.8,-,0.00,,Overcast,340,2013-11-27 09:53:00
5:53 AM,30.9,28.0,89,29.75,8.0,NNW,5.8,-,0.00,,Overcast,330,2013-11-27 10:53:00
6:18 AM,30.2,28.4,93,29.71,7.0,NW,5.8,-,N/A,,Overcast,310,2013-11-27 11:18:00
6:28 AM,30.2,28.4,93,29.71,7.0,NW,5.8,-,N/A,,Overcast,320,2013-11-27 11:28:00
6:36 AM,30.2,28.4,93,29.71,7.0,WNW,3.5,-,N/A,,Overcast,300,2013-11-27 11:36:00
6:46 AM,30.2,28.4,93,29.71,6.0,WNW,6.9,-,N/A,,Overcast,300,2013-11-27 11:46:00
6:53 AM,30.9,28.9,92,29.75,6.0,WNW,5.8,-,N/A,,Overcast,300,2013-11-27 11:53:00
7:09 AM,30.2,28.4,93,29.71,5.0,WNW,5.8,-,N/A,,Overcast,300,2013-11-27 12:09:00
7:53 AM,30.9,28.0,89,29.76,8.0,NNW,5.8,-,0.00,,Overcast,330,2013-11-27 12:53:00
8:37 AM,30.2,26.6,86,29.74,1.8,NW,10.4,19.6,0.00,Snow,Light Snow,320,2013-11-27 13:37:00
8:53 AM,30.0,27.0,88,29.78,1.8,North,15.0,21.9,0.00,Snow,Light Snow,350,2013-11-27 13:53:00
8:57 AM,30.2,26.6,86,29.74,3.0,North,11.5,24.2,0.00,Snow,Light Snow,350,2013-11-27 13:57:00
9:05 AM,30.2,26.6,86,29.74,8.0,NNW,12.7,21.9,0.00,Snow,Light Snow,340,2013-11-27 14:05:00
9:18 AM,28.4,24.8,86,29.74,8.0,NNW,11.5,21.9,0.00,Snow,Light Snow,340,2013-11-27 14:18:00
9:49 AM,30.2,23.0,75,29.75,10.0,NW,12.7,21.9,0.00,,Overcast,320,2013-11-27 14:49:00
9:53 AM,28.9,23.0,78,29.79,10.0,NNW,10.4,21.9,0.00,,Overcast,340,2013-11-27 14:53:00
10:53 AM,28.9,21.9,75,29.80,9.0,NNW,13.8,21.9,0.00,Snow,Light Snow,330,2013-11-27 15:53:00
11:53 AM,27.0,21.0,78,29.79,3.0,NW,13.8,21.9,0.00,Snow,Light Snow,320,2013-11-27 16:53:00
12:14 PM,26.6,21.2,80,29.74,2.0,NW,9.2,18.4,0.00,Snow,Light Snow,320,2013-11-27 17:14:00
12:23 PM,26.6,21.2,80,29.74,1.2,NW,10.4,-,0.00,Snow,Light Snow,310,2013-11-27 17:23:00
12:41 PM,26.6,19.4,74,29.74,2.5,NW,17.3,27.6,0.00,Snow,Light Snow,320,2013-11-27 17:41:00
12:44 PM,26.6,19.4,74,29.74,3.0,WNW,12.7,27.6,0.00,Snow,Light Snow,300,2013-11-27 17:44:00
12:48 PM,26.6,19.4,74,29.74,2.5,WNW,13.8,27.6,0.00,Snow,Light Snow,300,2013-11-27 17:48:00
12:53 PM,25.0,19.9,81,29.78,2.0,WNW,10.4,20.7,0.00,Snow,Light Snow,300,2013-11-27 17:53:00
1:01 PM,24.8,19.4,80,29.74,1.5,WNW,11.5,24.2,0.00,Snow,Light Snow,300,2013-11-27 18:01:00
1:09 PM,26.6,19.4,74,29.74,3.0,WNW,13.8,20.7,0.00,Snow,Light Snow,300,2013-11-27 18:09:00
1:25 PM,26.6,17.6,69,29.74,3.0,WNW,12.7,20.7,0.00,Snow,Light Snow,290,2013-11-27 18:25:00
1:53 PM,26.1,17.1,69,29.80,6.0,WNW,16.1,25.3,0.00,Snow,Light Snow,300,2013-11-27 18:53:00
2:26 PM,24.8,15.8,69,29.77,10.0,West,12.7,20.7,0.00,,Overcast,280,2013-11-27 19:26:00
2:53 PM,24.1,14.0,65,29.83,10.0,WNW,11.5,19.6,0.00,,Overcast,290,2013-11-27 19:53:00
3:22 PM,24.8,15.8,69,29.80,9.0,West,12.7,18.4,N/A,,Overcast,270,2013-11-27 20:22:00
3:34 PM,23.0,15.8,74,29.80,1.8,WNW,11.5,23.0,0.00,Snow,Light Snow,290,2013-11-27 20:34:00
3:47 PM,23.0,15.8,74,29.81,3.0,West,10.4,17.3,0.00,Snow,Light Snow,260,2013-11-27 20:47:00
3:53 PM,23.0,16.0,74,29.86,3.0,West,16.1,-,0.00,Snow,Light Snow,260,2013-11-27 20:53:00
3:55 PM,21.2,15.8,80,29.81,1.8,West,11.5,18.4,0.00,Snow,Light Snow,260,2013-11-27 20:55:00
4:06 PM,21.2,17.6,86,29.82,0.8,West,11.5,-,0.00,Snow,Light Snow,260,2013-11-27 21:06:00
4:17 PM,21.2,17.6,86,29.82,0.2,West,13.8,-,0.00,Fog-Snow,Snow,260,2013-11-27 21:17:00
4:28 PM,21.2,19.4,93,29.83,0.2,West,13.8,-,0.00,Fog-Snow,Heavy Snow,260,2013-11-27 21:28:00
4:39 PM,21.2,19.4,93,29.83,0.5,West,11.5,-,0.00,Fog-Snow,Snow,260,2013-11-27 21:39:00
4:53 PM,21.9,19.0,89,29.88,0.2,West,11.5,-,0.00,Fog-Snow,Snow,260,2013-11-27 21:53:00
5:07 PM,21.2,19.4,93,29.84,0.8,West,12.7,-,0.00,Snow,Light Snow,270,2013-11-27 22:07:00
5:20 PM,23.0,19.4,86,29.85,1.0,West,11.5,19.6,0.00,Snow,Light Snow,280,2013-11-27 22:20:00
5:32 PM,23.0,19.4,86,29.86,2.0,WNW,10.4,18.4,0.00,Snow,Light Snow,290,2013-11-27 22:32:00
5:42 PM,23.0,17.6,80,29.86,7.0,West,9.2,18.4,0.00,Snow,Light Snow,280,2013-11-27 22:42:00
5:53 PM,23.0,17.1,78,29.91,6.0,WNW,11.5,21.9,0.00,Snow,Light Snow,290,2013-11-27 22:53:00
6:15 PM,23.0,15.8,74,29.88,2.5,NW,12.7,19.6,0.00,Snow,Light Snow,310,2013-11-27 23:15:00
6:23 PM,21.2,17.6,86,29.88,1.0,WNW,9.2,19.6,0.00,Snow,Light Snow,290,2013-11-27 23:23:00
6:33 PM,21.2,17.6,86,29.88,0.8,WNW,8.1,-,0.00,Snow,Light Snow,290,2013-11-27 23:33:00
6:45 PM,21.2,19.4,93,29.89,0.5,WNW,12.7,-,0.00,Fog-Snow,Snow,290,2013-11-27 23:45:00
6:53 PM,21.9,19.0,89,29.94,1.0,WNW,10.4,-,0.00,Snow,Light Snow,290,2013-11-27 23:53:00
7:06 PM,21.2,19.4,93,29.90,1.8,West,12.7,18.4,0.00,Snow,Light Snow,280,2013-11-28 00:06:00
7:23 PM,23.0,17.6,80,29.90,1.8,WNW,8.1,21.9,0.00,Snow,Light Snow,290,2013-11-28 00:23:00
7:33 PM,23.0,17.6,80,29.91,3.0,WNW,12.7,-,0.00,Snow,Light Snow,290,2013-11-28 00:33:00
7:45 PM,21.2,17.6,86,29.91,2.0,WNW,12.7,20.7,0.00,Snow,Light Snow,290,2013-11-28 00:45:00
7:53 PM,21.9,18.0,85,29.96,2.0,WNW,9.2,20.7,0.00,Snow,Light Snow,290,2013-11-28 00:53:00
8:01 PM,21.2,17.6,86,29.92,1.8,WNW,8.1,17.3,0.00,Snow,Light Snow,290,2013-11-28 01:01:00
8:07 PM,21.2,17.6,86,29.92,3.0,WNW,10.4,18.4,0.00,Snow,Light Snow,290,2013-11-28 01:07:00
8:22 PM,21.2,17.6,86,29.93,2.0,WNW,12.7,20.7,0.00,Snow,Light Snow,300,2013-11-28 01:22:00
8:43 PM,21.2,15.8,80,29.93,5.0,WNW,10.4,21.9,0.00,Snow,Light Snow,290,2013-11-28 01:43:00
8:53 PM,21.9,16.0,78,29.99,4.0,WNW,13.8,25.3,0.00,Snow,Light Snow,290,2013-11-28 01:53:00
9:53 PM,21.9,16.0,78,30.01,4.0,WNW,10.4,18.4,0.00,Snow,Light Snow,290,2013-11-28 02:53:00
10:33 PM,21.2,15.8,80,29.98,5.0,West,11.5,-,0.00,Snow,Light Snow,280,2013-11-28 03:33:00
10:42 PM,21.2,15.8,80,29.98,3.0,West,9.2,-,0.00,Snow,Light Snow,280,2013-11-28 03:42:00
10:53 PM,21.0,16.0,81,30.04,4.0,West,9.2,-,0.00,Snow,Light Snow,280,2013-11-28 03:53:00
11:09 PM,21.2,15.8,80,29.99,2.5,West,10.4,17.3,0.00,Snow,Light Snow,280,2013-11-28 04:09:00
11:43 PM,21.2,15.8,80,30.01,3.0,West,9.2,-,0.00,Snow,Light Snow,280,2013-11-28 04:43:00
11:53 PM,21.9,16.0,78,30.07,4.0,West,10.4,17.3,0.00,Snow,Light Snow,280,2013-11-28 04:53:00